Аэропорт: Черновцы. Черновцы

ICAO: UKLN

METAR:
Информация по данной станции не доступна
METAR:
2020-06-03 20:05:00
TAF UKLN 032005Z 0321/0406 VRB01MPS 9999 BKN020 TEMPO 0321/0403 22006MPS 3000 -SHRA BKN010 BKN020CB